sensor_id;sensor_type;location;lat;lon;timestamp;P1;durP1;ratioP1;P2;durP2;ratioP2
31262;SDS011;17892;52.080;9.006;2023-07-31T00:00:27;1.88;;;0.73;;
31262;SDS011;17892;52.080;9.006;2023-07-31T00:02:52;1.38;;;0.50;;
31262;SDS011;17892;52.080;9.006;2023-07-31T00:05:19;1.75;;;0.80;;
31262;SDS011;17892;52.080;9.006;2023-07-31T00:07:45;1.30;;;0.40;;
31262;SDS011;17892;52.080;9.006;2023-07-31T00:10:11;2.00;;;0.98;;
31262;SDS011;17892;52.080;9.006;2023-07-31T00:12:38;2.17;;;0.60;;
31262;SDS011;17892;52.080;9.006;2023-07-31T00:15:06;1.58;;;0.50;;
31262;SDS011;17892;52.080;9.006;2023-07-31T00:17:33;1.35;;;0.60;;
31262;SDS011;17892;52.080;9.006;2023-07-31T00:19:59;1.40;;;0.60;;
31262;SDS011;17892;52.080;9.006;2023-07-31T00:22:24;1.40;;;0.57;;
31262;SDS011;17892;52.080;9.006;2023-07-31T00:24:50;1.20;;;0.50;;
31262;SDS011;17892;52.080;9.006;2023-07-31T00:27:16;1.05;;;0.50;;
31262;SDS011;17892;52.080;9.006;2023-07-31T00:29:42;0.50;;;0.30;;
31262;SDS011;17892;52.080;9.006;2023-07-31T00:32:07;0.68;;;0.30;;
31262;SDS011;17892;52.080;9.006;2023-07-31T00:34:33;1.20;;;0.38;;
31262;SDS011;17892;52.080;9.006;2023-07-31T00:36:59;0.15;;;0.15;;
31262;SDS011;17892;52.080;9.006;2023-07-31T00:39:24;0.68;;;0.28;;
31262;SDS011;17892;52.080;9.006;2023-07-31T00:41:50;0.70;;;0.20;;
31262;SDS011;17892;52.080;9.006;2023-07-31T00:44:16;0.30;;;0.20;;
31262;SDS011;17892;52.080;9.006;2023-07-31T00:46:42;1.00;;;0.30;;
31262;SDS011;17892;52.080;9.006;2023-07-31T00:49:07;0.60;;;0.20;;
31262;SDS011;17892;52.080;9.006;2023-07-31T00:51:35;0.60;;;0.30;;
31262;SDS011;17892;52.080;9.006;2023-07-31T00:54:01;0.70;;;0.32;;
31262;SDS011;17892;52.080;9.006;2023-07-31T00:56:27;0.80;;;0.40;;
31262;SDS011;17892;52.080;9.006;2023-07-31T00:58:54;0.65;;;0.30;;
31262;SDS011;17892;52.080;9.006;2023-07-31T01:01:21;1.33;;;0.40;;
31262;SDS011;17892;52.080;9.006;2023-07-31T01:03:47;0.90;;;0.40;;
31262;SDS011;17892;52.080;9.006;2023-07-31T01:12:41;1.33;;;0.60;;
31262;SDS011;17892;52.080;9.006;2023-07-31T01:15:10;1.35;;;0.60;;
31262;SDS011;17892;52.080;9.006;2023-07-31T01:17:36;1.50;;;0.60;;
31262;SDS011;17892;52.080;9.006;2023-07-31T01:20:11;1.15;;;0.50;;
31262;SDS011;17892;52.080;9.006;2023-07-31T01:22:46;1.27;;;0.50;;
31262;SDS011;17892;52.080;9.006;2023-07-31T01:28:13;1.63;;;0.50;;
31262;SDS011;17892;52.080;9.006;2023-07-31T01:30:46;2.50;;;0.55;;
31262;SDS011;17892;52.080;9.006;2023-07-31T01:33:14;1.17;;;0.60;;
31262;SDS011;17892;52.080;9.006;2023-07-31T01:35:42;1.00;;;0.50;;
31262;SDS011;17892;52.080;9.006;2023-07-31T01:38:11;2.55;;;0.68;;
31262;SDS011;17892;52.080;9.006;2023-07-31T01:40:37;1.23;;;0.50;;
31262;SDS011;17892;52.080;9.006;2023-07-31T01:43:02;1.00;;;0.40;;
31262;SDS011;17892;52.080;9.006;2023-07-31T01:45:28;1.48;;;0.50;;
31262;SDS011;17892;52.080;9.006;2023-07-31T01:47:54;1.15;;;0.55;;
31262;SDS011;17892;52.080;9.006;2023-07-31T01:50:20;1.50;;;0.63;;
31262;SDS011;17892;52.080;9.006;2023-07-31T01:52:45;1.55;;;0.70;;
31262;SDS011;17892;52.080;9.006;2023-07-31T01:55:11;1.27;;;0.60;;
31262;SDS011;17892;52.080;9.006;2023-07-31T01:57:37;1.73;;;0.60;;
31262;SDS011;17892;52.080;9.006;2023-07-31T02:00:03;1.45;;;0.55;;
31262;SDS011;17892;52.080;9.006;2023-07-31T02:02:30;1.55;;;0.60;;
31262;SDS011;17892;52.080;9.006;2023-07-31T02:04:56;1.27;;;0.60;;
31262;SDS011;17892;52.080;9.006;2023-07-31T02:07:22;2.05;;;0.80;;
31262;SDS011;17892;52.080;9.006;2023-07-31T02:09:47;2.05;;;0.63;;
31262;SDS011;17892;52.080;9.006;2023-07-31T02:12:13;2.30;;;1.02;;
31262;SDS011;17892;52.080;9.006;2023-07-31T02:14:39;0.98;;;0.47;;
31262;SDS011;17892;52.080;9.006;2023-07-31T02:17:06;1.50;;;0.70;;
31262;SDS011;17892;52.080;9.006;2023-07-31T02:19:31;4.57;;;0.75;;
31262;SDS011;17892;52.080;9.006;2023-07-31T02:21:57;1.80;;;0.45;;
31262;SDS011;17892;52.080;9.006;2023-07-31T02:24:23;1.40;;;0.60;;
31262;SDS011;17892;52.080;9.006;2023-07-31T02:26:49;1.70;;;0.70;;
31262;SDS011;17892;52.080;9.006;2023-07-31T02:29:15;3.10;;;0.57;;
31262;SDS011;17892;52.080;9.006;2023-07-31T02:31:41;1.73;;;0.50;;
31262;SDS011;17892;52.080;9.006;2023-07-31T02:34:06;1.52;;;0.60;;
31262;SDS011;17892;52.080;9.006;2023-07-31T02:36:32;1.50;;;0.60;;
31262;SDS011;17892;52.080;9.006;2023-07-31T02:38:58;1.25;;;0.50;;
31262;SDS011;17892;52.080;9.006;2023-07-31T02:41:23;2.00;;;0.70;;
31262;SDS011;17892;52.080;9.006;2023-07-31T02:43:49;1.67;;;0.50;;
31262;SDS011;17892;52.080;9.006;2023-07-31T02:46:15;1.42;;;0.50;;
31262;SDS011;17892;52.080;9.006;2023-07-31T02:48:41;2.42;;;0.60;;
31262;SDS011;17892;52.080;9.006;2023-07-31T02:51:06;1.45;;;0.50;;
31262;SDS011;17892;52.080;9.006;2023-07-31T02:53:32;1.95;;;0.85;;
31262;SDS011;17892;52.080;9.006;2023-07-31T02:55:57;1.17;;;0.40;;
31262;SDS011;17892;52.080;9.006;2023-07-31T02:58:23;1.63;;;0.65;;
31262;SDS011;17892;52.080;9.006;2023-07-31T03:00:49;1.00;;;0.40;;
31262;SDS011;17892;52.080;9.006;2023-07-31T03:03:15;1.48;;;0.50;;
31262;SDS011;17892;52.080;9.006;2023-07-31T03:05:40;1.13;;;0.40;;
31262;SDS011;17892;52.080;9.006;2023-07-31T03:08:06;1.15;;;0.30;;
31262;SDS011;17892;52.080;9.006;2023-07-31T03:10:32;0.82;;;0.30;;
31262;SDS011;17892;52.080;9.006;2023-07-31T03:12:57;0.80;;;0.30;;
31262;SDS011;17892;52.080;9.006;2023-07-31T03:15:23;0.70;;;0.30;;
31262;SDS011;17892;52.080;9.006;2023-07-31T03:17:49;1.08;;;0.10;;
31262;SDS011;17892;52.080;9.006;2023-07-31T03:20:14;0.43;;;0.20;;
31262;SDS011;17892;52.080;9.006;2023-07-31T03:22:40;0.52;;;0.17;;
31262;SDS011;17892;52.080;9.006;2023-07-31T03:25:06;0.65;;;0.32;;
31262;SDS011;17892;52.080;9.006;2023-07-31T03:27:32;0.03;;;0.03;;
31262;SDS011;17892;52.080;9.006;2023-07-31T03:29:58;0.20;;;0.10;;
31262;SDS011;17892;52.080;9.006;2023-07-31T03:32:26;0.75;;;0.10;;
31262;SDS011;17892;52.080;9.006;2023-07-31T03:34:51;0.47;;;0.10;;
31262;SDS011;17892;52.080;9.006;2023-07-31T03:37:17;0.22;;;0.10;;
31262;SDS011;17892;52.080;9.006;2023-07-31T03:39:43;0.40;;;0.20;;
31262;SDS011;17892;52.080;9.006;2023-07-31T03:42:08;0.68;;;0.20;;
31262;SDS011;17892;52.080;9.006;2023-07-31T03:44:34;0.88;;;0.35;;
31262;SDS011;17892;52.080;9.006;2023-07-31T03:47:00;1.42;;;0.50;;
31262;SDS011;17892;52.080;9.006;2023-07-31T03:49:26;1.92;;;0.82;;
31262;SDS011;17892;52.080;9.006;2023-07-31T03:51:51;2.45;;;1.00;;
31262;SDS011;17892;52.080;9.006;2023-07-31T03:54:17;2.28;;;1.10;;
31262;SDS011;17892;52.080;9.006;2023-07-31T03:56:43;3.22;;;1.55;;
31262;SDS011;17892;52.080;9.006;2023-07-31T03:59:08;3.55;;;1.88;;
31262;SDS011;17892;52.080;9.006;2023-07-31T04:01:34;3.85;;;2.03;;
31262;SDS011;17892;52.080;9.006;2023-07-31T04:04:00;3.92;;;2.50;;
31262;SDS011;17892;52.080;9.006;2023-07-31T04:06:25;6.18;;;2.67;;
31262;SDS011;17892;52.080;9.006;2023-07-31T04:08:51;6.00;;;3.13;;
31262;SDS011;17892;52.080;9.006;2023-07-31T04:11:17;5.05;;;3.20;;
31262;SDS011;17892;52.080;9.006;2023-07-31T04:13:42;6.43;;;3.63;;
31262;SDS011;17892;52.080;9.006;2023-07-31T04:16:08;4.65;;;3.05;;
31262;SDS011;17892;52.080;9.006;2023-07-31T04:18:34;8.48;;;4.53;;
31262;SDS011;17892;52.080;9.006;2023-07-31T04:21:00;7.40;;;3.67;;
31262;SDS011;17892;52.080;9.006;2023-07-31T04:23:26;7.80;;;4.20;;
31262;SDS011;17892;52.080;9.006;2023-07-31T04:25:52;9.70;;;4.82;;
31262;SDS011;17892;52.080;9.006;2023-07-31T04:28:17;8.02;;;4.65;;
31262;SDS011;17892;52.080;9.006;2023-07-31T04:30:43;7.03;;;4.53;;
31262;SDS011;17892;52.080;9.006;2023-07-31T04:33:09;10.85;;;5.25;;
31262;SDS011;17892;52.080;9.006;2023-07-31T04:35:34;8.30;;;5.05;;
31262;SDS011;17892;52.080;9.006;2023-07-31T04:38:00;8.57;;;5.20;;
31262;SDS011;17892;52.080;9.006;2023-07-31T04:40:26;11.50;;;6.43;;
31262;SDS011;17892;52.080;9.006;2023-07-31T04:42:52;9.05;;;5.32;;
31262;SDS011;17892;52.080;9.006;2023-07-31T04:45:17;8.75;;;4.38;;
31262;SDS011;17892;52.080;9.006;2023-07-31T04:47:43;8.50;;;4.88;;
31262;SDS011;17892;52.080;9.006;2023-07-31T04:50:09;8.82;;;4.93;;
31262;SDS011;17892;52.080;9.006;2023-07-31T04:52:35;7.32;;;4.40;;
31262;SDS011;17892;52.080;9.006;2023-07-31T04:55:00;7.78;;;4.00;;
31262;SDS011;17892;52.080;9.006;2023-07-31T04:57:26;8.95;;;5.30;;
31262;SDS011;17892;52.080;9.006;2023-07-31T04:59:52;7.00;;;4.38;;
31262;SDS011;17892;52.080;9.006;2023-07-31T05:02:18;9.05;;;4.75;;
31262;SDS011;17892;52.080;9.006;2023-07-31T05:04:43;8.18;;;4.57;;
31262;SDS011;17892;52.080;9.006;2023-07-31T05:07:09;7.00;;;4.30;;
31262;SDS011;17892;52.080;9.006;2023-07-31T05:09:35;9.95;;;4.78;;
31262;SDS011;17892;52.080;9.006;2023-07-31T05:12:00;7.90;;;4.70;;
31262;SDS011;17892;52.080;9.006;2023-07-31T05:14:26;6.50;;;3.65;;
31262;SDS011;17892;52.080;9.006;2023-07-31T05:16:52;8.82;;;4.40;;
31262;SDS011;17892;52.080;9.006;2023-07-31T05:19:18;6.82;;;3.90;;
31262;SDS011;17892;52.080;9.006;2023-07-31T05:21:43;7.05;;;4.20;;
31262;SDS011;17892;52.080;9.006;2023-07-31T05:24:09;6.13;;;3.83;;
31262;SDS011;17892;52.080;9.006;2023-07-31T05:26:35;9.40;;;5.88;;
31262;SDS011;17892;52.080;9.006;2023-07-31T05:29:02;8.88;;;4.63;;
31262;SDS011;17892;52.080;9.006;2023-07-31T05:31:28;7.97;;;4.63;;
31262;SDS011;17892;52.080;9.006;2023-07-31T05:33:54;8.52;;;4.75;;
31262;SDS011;17892;52.080;9.006;2023-07-31T05:36:20;9.68;;;5.13;;
31262;SDS011;17892;52.080;9.006;2023-07-31T05:38:45;10.90;;;4.78;;
31262;SDS011;17892;52.080;9.006;2023-07-31T05:41:14;11.38;;;5.72;;
31262;SDS011;17892;52.080;9.006;2023-07-31T05:43:41;9.52;;;5.60;;
31262;SDS011;17892;52.080;9.006;2023-07-31T05:46:08;11.75;;;5.38;;
31262;SDS011;17892;52.080;9.006;2023-07-31T05:48:34;10.68;;;4.88;;
31262;SDS011;17892;52.080;9.006;2023-07-31T05:51:00;11.93;;;6.03;;
31262;SDS011;17892;52.080;9.006;2023-07-31T05:53:25;10.55;;;5.32;;
31262;SDS011;17892;52.080;9.006;2023-07-31T05:55:51;9.02;;;5.15;;
31262;SDS011;17892;52.080;9.006;2023-07-31T05:58:17;10.80;;;4.35;;
31262;SDS011;17892;52.080;9.006;2023-07-31T06:00:42;10.35;;;4.28;;
31262;SDS011;17892;52.080;9.006;2023-07-31T06:03:08;10.70;;;5.03;;
31262;SDS011;17892;52.080;9.006;2023-07-31T06:05:34;9.25;;;5.10;;
31262;SDS011;17892;52.080;9.006;2023-07-31T06:08:00;9.05;;;4.72;;
31262;SDS011;17892;52.080;9.006;2023-07-31T06:10:26;8.63;;;4.80;;
31262;SDS011;17892;52.080;9.006;2023-07-31T06:12:52;9.05;;;4.57;;
31262;SDS011;17892;52.080;9.006;2023-07-31T06:15:19;8.38;;;4.60;;
31262;SDS011;17892;52.080;9.006;2023-07-31T06:17:45;8.70;;;4.78;;
31262;SDS011;17892;52.080;9.006;2023-07-31T06:20:11;10.02;;;4.10;;
31262;SDS011;17892;52.080;9.006;2023-07-31T06:22:36;7.28;;;4.10;;
31262;SDS011;17892;52.080;9.006;2023-07-31T06:25:02;6.43;;;4.15;;
31262;SDS011;17892;52.080;9.006;2023-07-31T06:27:28;7.22;;;3.75;;
31262;SDS011;17892;52.080;9.006;2023-07-31T06:29:54;8.55;;;4.25;;
31262;SDS011;17892;52.080;9.006;2023-07-31T06:32:20;7.03;;;3.75;;
31262;SDS011;17892;52.080;9.006;2023-07-31T06:34:45;7.57;;;3.60;;
31262;SDS011;17892;52.080;9.006;2023-07-31T06:37:11;8.73;;;3.40;;
31262;SDS011;17892;52.080;9.006;2023-07-31T06:39:37;7.40;;;3.47;;
31262;SDS011;17892;52.080;9.006;2023-07-31T06:42:02;8.27;;;4.18;;
31262;SDS011;17892;52.080;9.006;2023-07-31T06:44:29;7.63;;;3.67;;
31262;SDS011;17892;52.080;9.006;2023-07-31T06:46:55;8.32;;;3.42;;
31262;SDS011;17892;52.080;9.006;2023-07-31T06:49:20;6.65;;;3.55;;
31262;SDS011;17892;52.080;9.006;2023-07-31T06:51:46;8.27;;;4.05;;
31262;SDS011;17892;52.080;9.006;2023-07-31T06:54:12;7.43;;;3.53;;
31262;SDS011;17892;52.080;9.006;2023-07-31T06:56:37;7.53;;;3.30;;
31262;SDS011;17892;52.080;9.006;2023-07-31T06:59:03;8.63;;;3.10;;
31262;SDS011;17892;52.080;9.006;2023-07-31T07:01:29;5.00;;;2.78;;
31262;SDS011;17892;52.080;9.006;2023-07-31T07:03:54;8.77;;;3.33;;
31262;SDS011;17892;52.080;9.006;2023-07-31T07:06:21;5.85;;;2.70;;
31262;SDS011;17892;52.080;9.006;2023-07-31T07:08:47;6.13;;;3.42;;
31262;SDS011;17892;52.080;9.006;2023-07-31T07:11:13;6.95;;;2.85;;
31262;SDS011;17892;52.080;9.006;2023-07-31T07:13:39;7.15;;;2.85;;
31262;SDS011;17892;52.080;9.006;2023-07-31T07:16:05;5.30;;;2.67;;
31262;SDS011;17892;52.080;9.006;2023-07-31T07:18:30;5.82;;;3.00;;
31262;SDS011;17892;52.080;9.006;2023-07-31T07:20:56;7.78;;;2.88;;
31262;SDS011;17892;52.080;9.006;2023-07-31T07:23:23;6.47;;;3.03;;
31262;SDS011;17892;52.080;9.006;2023-07-31T07:25:49;5.60;;;2.65;;
31262;SDS011;17892;52.080;9.006;2023-07-31T07:28:15;6.63;;;3.53;;
31262;SDS011;17892;52.080;9.006;2023-07-31T07:30:40;7.07;;;3.08;;
31262;SDS011;17892;52.080;9.006;2023-07-31T07:33:06;7.20;;;3.50;;
31262;SDS011;17892;52.080;9.006;2023-07-31T07:35:35;8.63;;;3.80;;
31262;SDS011;17892;52.080;9.006;2023-07-31T07:38:02;7.65;;;3.20;;
31262;SDS011;17892;52.080;9.006;2023-07-31T07:40:28;5.85;;;3.28;;
31262;SDS011;17892;52.080;9.006;2023-07-31T07:42:53;6.63;;;3.17;;
31262;SDS011;17892;52.080;9.006;2023-07-31T07:45:19;5.47;;;3.08;;
31262;SDS011;17892;52.080;9.006;2023-07-31T07:47:45;6.20;;;2.95;;
31262;SDS011;17892;52.080;9.006;2023-07-31T07:50:11;5.97;;;3.10;;
31262;SDS011;17892;52.080;9.006;2023-07-31T07:52:36;5.55;;;2.55;;
31262;SDS011;17892;52.080;9.006;2023-07-31T07:55:02;6.03;;;2.90;;
31262;SDS011;17892;52.080;9.006;2023-07-31T07:57:29;6.80;;;3.50;;
31262;SDS011;17892;52.080;9.006;2023-07-31T07:59:54;5.93;;;3.45;;
31262;SDS011;17892;52.080;9.006;2023-07-31T08:02:21;5.75;;;2.85;;
31262;SDS011;17892;52.080;9.006;2023-07-31T08:04:47;6.63;;;2.97;;
31262;SDS011;17892;52.080;9.006;2023-07-31T08:07:13;5.75;;;2.80;;
31262;SDS011;17892;52.080;9.006;2023-07-31T08:09:39;4.95;;;2.58;;
31262;SDS011;17892;52.080;9.006;2023-07-31T08:12:06;5.10;;;2.47;;
31262;SDS011;17892;52.080;9.006;2023-07-31T08:14:32;4.13;;;2.40;;
31262;SDS011;17892;52.080;9.006;2023-07-31T08:16:58;4.65;;;2.22;;
31262;SDS011;17892;52.080;9.006;2023-07-31T08:19:24;3.55;;;1.77;;
31262;SDS011;17892;52.080;9.006;2023-07-31T08:21:50;3.72;;;1.30;;
31262;SDS011;17892;52.080;9.006;2023-07-31T08:24:16;3.10;;;1.08;;
31262;SDS011;17892;52.080;9.006;2023-07-31T08:26:42;3.85;;;1.20;;
31262;SDS011;17892;52.080;9.006;2023-07-31T08:29:07;2.33;;;0.93;;
31262;SDS011;17892;52.080;9.006;2023-07-31T08:31:33;2.42;;;0.90;;
31262;SDS011;17892;52.080;9.006;2023-07-31T08:33:59;2.42;;;0.90;;
31262;SDS011;17892;52.080;9.006;2023-07-31T08:36:25;2.00;;;0.90;;
31262;SDS011;17892;52.080;9.006;2023-07-31T08:38:51;2.20;;;0.90;;
31262;SDS011;17892;52.080;9.006;2023-07-31T08:41:17;2.25;;;0.80;;
31262;SDS011;17892;52.080;9.006;2023-07-31T08:43:43;1.92;;;0.70;;
31262;SDS011;17892;52.080;9.006;2023-07-31T08:46:11;2.25;;;0.93;;
31262;SDS011;17892;52.080;9.006;2023-07-31T08:48:39;2.28;;;0.75;;
31262;SDS011;17892;52.080;9.006;2023-07-31T08:51:07;1.70;;;0.68;;
31262;SDS011;17892;52.080;9.006;2023-07-31T08:53:33;2.47;;;0.88;;
31262;SDS011;17892;52.080;9.006;2023-07-31T08:55:59;1.77;;;0.77;;
31262;SDS011;17892;52.080;9.006;2023-07-31T08:58:27;3.10;;;1.15;;
31262;SDS011;17892;52.080;9.006;2023-07-31T09:00:58;2.47;;;1.08;;
31262;SDS011;17892;52.080;9.006;2023-07-31T09:03:27;2.70;;;1.40;;
31262;SDS011;17892;52.080;9.006;2023-07-31T09:05:58;3.78;;;1.95;;
31262;SDS011;17892;52.080;9.006;2023-07-31T09:08:24;3.35;;;1.65;;
31262;SDS011;17892;52.080;9.006;2023-07-31T09:10:56;5.28;;;2.45;;
31262;SDS011;17892;52.080;9.006;2023-07-31T09:13:27;3.90;;;1.70;;
31262;SDS011;17892;52.080;9.006;2023-07-31T09:15:54;4.15;;;2.00;;
31262;SDS011;17892;52.080;9.006;2023-07-31T09:18:20;3.58;;;1.90;;
31262;SDS011;17892;52.080;9.006;2023-07-31T09:21:00;3.47;;;1.63;;
31262;SDS011;17892;52.080;9.006;2023-07-31T09:23:43;3.92;;;2.03;;
31262;SDS011;17892;52.080;9.006;2023-07-31T09:26:10;4.97;;;1.75;;
31262;SDS011;17892;52.080;9.006;2023-07-31T09:28:54;3.15;;;1.60;;
31262;SDS011;17892;52.080;9.006;2023-07-31T09:34:18;3.05;;;1.58;;
31262;SDS011;17892;52.080;9.006;2023-07-31T09:36:45;2.90;;;1.42;;
31262;SDS011;17892;52.080;9.006;2023-07-31T09:39:14;4.20;;;1.67;;
31262;SDS011;17892;52.080;9.006;2023-07-31T09:41:42;2.45;;;1.30;;
31262;SDS011;17892;52.080;9.006;2023-07-31T09:44:11;2.92;;;1.50;;
31262;SDS011;17892;52.080;9.006;2023-07-31T09:46:37;4.18;;;1.50;;
31262;SDS011;17892;52.080;9.006;2023-07-31T09:49:09;3.40;;;1.40;;
31262;SDS011;17892;52.080;9.006;2023-07-31T09:51:37;2.72;;;1.45;;
31262;SDS011;17892;52.080;9.006;2023-07-31T09:56:45;4.53;;;2.03;;
31262;SDS011;17892;52.080;9.006;2023-07-31T09:59:17;3.78;;;2.03;;
31262;SDS011;17892;52.080;9.006;2023-07-31T10:01:45;3.95;;;1.73;;
31262;SDS011;17892;52.080;9.006;2023-07-31T10:04:12;4.45;;;2.17;;
31262;SDS011;17892;52.080;9.006;2023-07-31T10:06:39;3.90;;;1.63;;
31262;SDS011;17892;52.080;9.006;2023-07-31T10:09:09;5.13;;;1.90;;
31262;SDS011;17892;52.080;9.006;2023-07-31T10:11:46;4.35;;;2.03;;
31262;SDS011;17892;52.080;9.006;2023-07-31T10:14:20;3.28;;;1.70;;
31262;SDS011;17892;52.080;9.006;2023-07-31T10:16:46;3.55;;;1.60;;
31262;SDS011;17892;52.080;9.006;2023-07-31T10:19:13;3.08;;;1.38;;
31262;SDS011;17892;52.080;9.006;2023-07-31T10:21:39;3.95;;;1.67;;
31262;SDS011;17892;52.080;9.006;2023-07-31T10:24:07;3.88;;;1.73;;
31262;SDS011;17892;52.080;9.006;2023-07-31T10:26:34;3.35;;;1.40;;
31262;SDS011;17892;52.080;9.006;2023-07-31T10:29:03;3.35;;;1.70;;
31262;SDS011;17892;52.080;9.006;2023-07-31T10:31:30;4.30;;;1.98;;
31262;SDS011;17892;52.080;9.006;2023-07-31T10:33:57;5.00;;;2.10;;
31262;SDS011;17892;52.080;9.006;2023-07-31T10:36:28;3.88;;;1.95;;
31262;SDS011;17892;52.080;9.006;2023-07-31T10:38:55;3.38;;;1.80;;
31262;SDS011;17892;52.080;9.006;2023-07-31T10:41:28;3.30;;;1.75;;
31262;SDS011;17892;52.080;9.006;2023-07-31T10:43:59;3.65;;;1.70;;
31262;SDS011;17892;52.080;9.006;2023-07-31T10:46:25;3.08;;;1.45;;
31262;SDS011;17892;52.080;9.006;2023-07-31T10:49:00;4.10;;;1.58;;
31262;SDS011;17892;52.080;9.006;2023-07-31T10:51:34;2.65;;;1.35;;
31262;SDS011;17892;52.080;9.006;2023-07-31T10:54:10;3.25;;;1.40;;
31262;SDS011;17892;52.080;9.006;2023-07-31T10:56:44;4.22;;;1.67;;
31262;SDS011;17892;52.080;9.006;2023-07-31T10:59:11;2.53;;;1.25;;
31262;SDS011;17892;52.080;9.006;2023-07-31T11:01:54;2.80;;;1.50;;
31262;SDS011;17892;52.080;9.006;2023-07-31T11:04:27;3.38;;;1.40;;
31262;SDS011;17892;52.080;9.006;2023-07-31T11:06:56;2.58;;;1.23;;
31262;SDS011;17892;52.080;9.006;2023-07-31T11:09:24;2.75;;;1.15;;
31262;SDS011;17892;52.080;9.006;2023-07-31T11:11:55;2.60;;;0.95;;
31262;SDS011;17892;52.080;9.006;2023-07-31T11:14:21;2.70;;;1.02;;
31262;SDS011;17892;52.080;9.006;2023-07-31T11:16:49;1.88;;;1.00;;
31262;SDS011;17892;52.080;9.006;2023-07-31T11:19:23;2.15;;;0.90;;
31262;SDS011;17892;52.080;9.006;2023-07-31T11:21:52;2.63;;;1.15;;
31262;SDS011;17892;52.080;9.006;2023-07-31T11:24:18;3.03;;;0.90;;
31262;SDS011;17892;52.080;9.006;2023-07-31T11:26:51;1.80;;;0.80;;
31262;SDS011;17892;52.080;9.006;2023-07-31T11:29:18;2.03;;;0.70;;
31262;SDS011;17892;52.080;9.006;2023-07-31T11:31:44;2.63;;;0.93;;
31262;SDS011;17892;52.080;9.006;2023-07-31T11:34:13;1.95;;;0.73;;
31262;SDS011;17892;52.080;9.006;2023-07-31T11:36:40;2.20;;;0.70;;
31262;SDS011;17892;52.080;9.006;2023-07-31T11:39:07;1.35;;;0.63;;
31262;SDS011;17892;52.080;9.006;2023-07-31T11:41:34;1.42;;;0.68;;
31262;SDS011;17892;52.080;9.006;2023-07-31T11:44:00;2.58;;;0.70;;
31262;SDS011;17892;52.080;9.006;2023-07-31T11:46:26;2.20;;;1.00;;
31262;SDS011;17892;52.080;9.006;2023-07-31T11:48:59;2.20;;;0.95;;
31262;SDS011;17892;52.080;9.006;2023-07-31T11:51:25;1.70;;;0.68;;
31262;SDS011;17892;52.080;9.006;2023-07-31T11:53:58;1.50;;;0.60;;
31262;SDS011;17892;52.080;9.006;2023-07-31T11:56:26;1.65;;;0.73;;
31262;SDS011;17892;52.080;9.006;2023-07-31T11:58:59;2.00;;;0.70;;
31262;SDS011;17892;52.080;9.006;2023-07-31T12:01:27;1.90;;;0.70;;
31262;SDS011;17892;52.080;9.006;2023-07-31T12:03:53;2.05;;;0.70;;
31262;SDS011;17892;52.080;9.006;2023-07-31T12:06:19;1.83;;;0.60;;
31262;SDS011;17892;52.080;9.006;2023-07-31T12:08:46;1.95;;;0.70;;
31262;SDS011;17892;52.080;9.006;2023-07-31T12:11:12;1.55;;;0.60;;
31262;SDS011;17892;52.080;9.006;2023-07-31T12:13:39;2.13;;;0.82;;
31262;SDS011;17892;52.080;9.006;2023-07-31T12:16:05;1.40;;;0.65;;
31262;SDS011;17892;52.080;9.006;2023-07-31T12:18:35;2.05;;;0.75;;
31262;SDS011;17892;52.080;9.006;2023-07-31T12:21:03;1.75;;;0.77;;
31262;SDS011;17892;52.080;9.006;2023-07-31T12:23:34;2.13;;;0.60;;
31262;SDS011;17892;52.080;9.006;2023-07-31T12:28:48;1.50;;;0.70;;
31262;SDS011;17892;52.080;9.006;2023-07-31T12:31:16;2.60;;;0.90;;
31262;SDS011;17892;52.080;9.006;2023-07-31T12:33:45;2.60;;;1.00;;
31262;SDS011;17892;52.080;9.006;2023-07-31T12:36:13;1.90;;;0.80;;
31262;SDS011;17892;52.080;9.006;2023-07-31T12:38:42;2.20;;;1.00;;
31262;SDS011;17892;52.080;9.006;2023-07-31T12:41:08;1.83;;;0.70;;
31262;SDS011;17892;52.080;9.006;2023-07-31T12:43:35;1.90;;;0.77;;
31262;SDS011;17892;52.080;9.006;2023-07-31T12:46:02;1.98;;;0.77;;
31262;SDS011;17892;52.080;9.006;2023-07-31T12:48:28;1.85;;;0.88;;
31262;SDS011;17892;52.080;9.006;2023-07-31T12:50:54;2.00;;;0.73;;
31262;SDS011;17892;52.080;9.006;2023-07-31T12:53:20;2.38;;;1.00;;
31262;SDS011;17892;52.080;9.006;2023-07-31T12:55:46;3.88;;;0.70;;
31262;SDS011;17892;52.080;9.006;2023-07-31T12:58:12;2.10;;;0.80;;
31262;SDS011;17892;52.080;9.006;2023-07-31T13:00:38;1.33;;;0.70;;
31262;SDS011;17892;52.080;9.006;2023-07-31T13:03:03;2.22;;;1.10;;
31262;SDS011;17892;52.080;9.006;2023-07-31T13:05:29;1.90;;;0.80;;
31262;SDS011;17892;52.080;9.006;2023-07-31T13:07:55;1.85;;;0.70;;
31262;SDS011;17892;52.080;9.006;2023-07-31T13:10:22;2.75;;;0.70;;
31262;SDS011;17892;52.080;9.006;2023-07-31T13:12:48;1.60;;;0.52;;
31262;SDS011;17892;52.080;9.006;2023-07-31T13:15:14;1.80;;;0.70;;
31262;SDS011;17892;52.080;9.006;2023-07-31T13:17:40;1.98;;;0.60;;
31262;SDS011;17892;52.080;9.006;2023-07-31T13:20:06;1.40;;;0.57;;
31262;SDS011;17892;52.080;9.006;2023-07-31T13:22:33;1.27;;;0.52;;
31262;SDS011;17892;52.080;9.006;2023-07-31T13:24:58;1.52;;;0.65;;
31262;SDS011;17892;52.080;9.006;2023-07-31T13:27:24;1.27;;;0.60;;
31262;SDS011;17892;52.080;9.006;2023-07-31T13:29:51;2.50;;;0.80;;
31262;SDS011;17892;52.080;9.006;2023-07-31T13:32:17;2.67;;;1.10;;
31262;SDS011;17892;52.080;9.006;2023-07-31T13:34:47;2.53;;;1.33;;
31262;SDS011;17892;52.080;9.006;2023-07-31T13:37:14;2.90;;;1.30;;
31262;SDS011;17892;52.080;9.006;2023-07-31T13:39:40;2.97;;;1.50;;
31262;SDS011;17892;52.080;9.006;2023-07-31T13:42:07;3.85;;;1.70;;
31262;SDS011;17892;52.080;9.006;2023-07-31T13:44:42;2.97;;;1.52;;
31262;SDS011;17892;52.080;9.006;2023-07-31T13:47:08;3.38;;;2.10;;
31262;SDS011;17892;52.080;9.006;2023-07-31T13:49:35;3.10;;;1.88;;
31262;SDS011;17892;52.080;9.006;2023-07-31T13:52:01;3.38;;;1.80;;
31262;SDS011;17892;52.080;9.006;2023-07-31T13:54:27;3.65;;;1.80;;
31262;SDS011;17892;52.080;9.006;2023-07-31T13:56:53;4.03;;;2.05;;
31262;SDS011;17892;52.080;9.006;2023-07-31T13:59:19;4.47;;;2.20;;
31262;SDS011;17892;52.080;9.006;2023-07-31T14:01:45;4.32;;;2.28;;
31262;SDS011;17892;52.080;9.006;2023-07-31T14:04:11;4.13;;;2.05;;
31262;SDS011;17892;52.080;9.006;2023-07-31T14:06:37;4.35;;;2.08;;
31262;SDS011;17892;52.080;9.006;2023-07-31T14:09:03;2.90;;;1.50;;
31262;SDS011;17892;52.080;9.006;2023-07-31T14:11:33;2.72;;;1.50;;
31262;SDS011;17892;52.080;9.006;2023-07-31T14:13:59;3.20;;;1.80;;
31262;SDS011;17892;52.080;9.006;2023-07-31T14:16:26;12.40;;;1.90;;
31262;SDS011;17892;52.080;9.006;2023-07-31T14:18:53;4.63;;;1.67;;
31262;SDS011;17892;52.080;9.006;2023-07-31T14:21:19;3.42;;;1.70;;
31262;SDS011;17892;52.080;9.006;2023-07-31T14:23:45;2.92;;;1.83;;
31262;SDS011;17892;52.080;9.006;2023-07-31T14:26:11;3.78;;;1.80;;
31262;SDS011;17892;52.080;9.006;2023-07-31T14:28:37;2.90;;;1.50;;
31262;SDS011;17892;52.080;9.006;2023-07-31T14:31:03;3.22;;;1.40;;
31262;SDS011;17892;52.080;9.006;2023-07-31T14:33:29;3.65;;;1.60;;
31262;SDS011;17892;52.080;9.006;2023-07-31T14:35:55;3.17;;;1.55;;
31262;SDS011;17892;52.080;9.006;2023-07-31T14:38:20;3.15;;;1.77;;
31262;SDS011;17892;52.080;9.006;2023-07-31T14:40:46;3.25;;;1.52;;
31262;SDS011;17892;52.080;9.006;2023-07-31T14:43:12;3.25;;;1.50;;
31262;SDS011;17892;52.080;9.006;2023-07-31T14:45:38;2.75;;;1.40;;
31262;SDS011;17892;52.080;9.006;2023-07-31T14:48:04;2.70;;;1.35;;
31262;SDS011;17892;52.080;9.006;2023-07-31T14:50:29;2.85;;;1.33;;
31262;SDS011;17892;52.080;9.006;2023-07-31T14:52:55;3.90;;;1.70;;
31262;SDS011;17892;52.080;9.006;2023-07-31T14:55:21;3.13;;;1.55;;
31262;SDS011;17892;52.080;9.006;2023-07-31T14:57:47;3.25;;;1.95;;
31262;SDS011;17892;52.080;9.006;2023-07-31T15:00:13;2.80;;;1.48;;
31262;SDS011;17892;52.080;9.006;2023-07-31T15:02:39;3.47;;;1.52;;